Time;durP1;ratioP1;P1;durP2;ratioP2;P2;SDS_P1;SDS_P2;PMS_P1;PMS_P2;Temp;Humidity;BMP_temperature;BMP_pressure;BME280_temperature;BME280_humidity;BME280_pressure;Samples;Min_cycle;Max_cycle;Signal;HPM_P1;HPM_P2
2022/04/30 00:01:26;;;;;;;0.20;0.20;;;10.60;83.70;;;;;;5053458;28;20084;-74
2022/04/30 00:03:52;;;;;;;0.35;0.35;;;10.40;84.10;;;;;;5053562;28;20024;-74
2022/04/30 00:06:18;;;;;;;0.30;0.30;;;10.50;83.80;;;;;;5053154;28;20040;-74
2022/04/30 00:08:44;;;;;;;0.30;0.30;;;10.50;84.50;;;;;;5053337;28;20492;-74
2022/04/30 00:11:10;;;;;;;2.00;1.85;;;10.30;84.50;;;;;;5035500;28;20036;-74
2022/04/30 00:13:38;;;;;;;0.10;0.10;;;10.20;85.10;;;;;;5053202;28;20078;-74
2022/04/30 00:16:04;;;;;;;0.28;0.28;;;10.00;86.20;;;;;;5053066;28;20443;-74
2022/04/30 00:18:30;;;;;;;0.20;0.20;;;9.90;86.90;;;;;;5018636;28;20088;-74
2022/04/30 00:20:58;;;;;;;1.40;1.30;;;9.80;87.20;;;;;;5052842;28;20024;-74
2022/04/30 00:23:24;;;;;;;0.30;0.30;;;9.60;88.30;;;;;;5052730;28;20018;-75
2022/04/30 00:25:52;;;;;;;0.17;0.17;;;9.50;89.20;;;;;;5035004;28;20369;-74
2022/04/30 00:28:19;;;;;;;0.10;0.10;;;9.40;90.10;;;;;;5052934;28;20052;-74
2022/04/30 00:30:46;;;;;;;0.17;0.17;;;9.70;90.40;;;;;;5053105;28;20035;-74
2022/04/30 00:33:11;;;;;;;0.20;0.20;;;9.90;90.10;;;;;;5052749;28;20483;-75
2022/04/30 00:35:37;;;;;;;2.53;2.28;;;10.00;89.90;;;;;;5052649;28;20032;-74
2022/04/30 00:38:04;;;;;;;0.20;0.20;;;10.20;89.70;;;;;;5035557;28;20059;-74
2022/04/30 00:40:29;;;;;;;0.43;0.43;;;10.50;88.80;;;;;;5052830;28;20173;-71
2022/04/30 00:42:55;;;;;;;0.20;0.20;;;10.40;87.50;;;;;;5052436;28;20036;-74
2022/04/30 00:45:21;;;;;;;0.20;0.20;;;10.30;87.80;;;;;;5034617;28;20028;-74
2022/04/30 00:47:47;;;;;;;0.20;0.20;;;10.10;87.70;;;;;;5052224;28;20032;-74
2022/04/30 00:50:15;;;;;;;0.20;0.20;;;10.00;88.60;;;;;;5052314;28;20464;-74
2022/04/30 00:52:45;;;;;;;2.15;2.05;;;10.20;90.00;;;;;;5034946;28;20042;-74
2022/04/30 00:55:12;;;;;;;0.20;0.20;;;10.40;87.20;;;;;;5052393;28;20036;-74
2022/04/30 00:57:41;;;;;;;0.20;0.20;;;10.40;87.50;;;;;;5052264;28;20029;-74
2022/04/30 01:00:08;;;;;;;0.10;0.10;;;10.10;88.10;;;;;;5034327;28;20032;-74
2022/04/30 01:02:34;;;;;;;0.35;0.35;;;9.90;89.50;;;;;;5052238;28;20099;-74
2022/04/30 01:05:00;;;;;;;0.20;0.20;;;9.80;88.80;;;;;;5034304;28;20116;-74
2022/04/30 01:07:27;;;;;;;0.30;0.30;;;10.00;89.60;;;;;;5034083;28;20025;-74
2022/04/30 01:09:54;;;;;;;0.57;0.57;;;10.00;89.20;;;;;;5034460;28;20025;-74
2022/04/30 01:12:21;;;;;;;0.15;0.15;;;10.10;88.90;;;;;;5052145;28;20025;-74
2022/04/30 01:14:47;;;;;;;0.20;0.20;;;10.10;89.10;;;;;;5034259;28;20027;-74
2022/04/30 01:17:13;;;;;;;0.40;0.40;;;10.10;88.40;;;;;;5051767;28;20028;-74
2022/04/30 01:19:43;;;;;;;0.20;0.20;;;10.10;88.30;;;;;;5051813;28;20118;-74
2022/04/30 01:22:24;;;;;;;0.25;0.25;;;10.20;89.40;;;;;;4998170;28;20549;-74
2022/04/30 01:24:56;;;;;;;0.20;0.20;;;10.30;89.20;;;;;;5032318;28;20029;-74
2022/04/30 01:27:26;;;;;;;0.10;0.10;;;10.20;88.80;;;;;;5033962;28;20116;-74
2022/04/30 01:29:53;;;;;;;0.30;0.30;;;10.00;90.00;;;;;;5033969;28;20025;-75
2022/04/30 01:37:57;;;;;;;0.20;0.20;;;9.90;90.60;;;;;;5051667;28;20036;-74
2022/04/30 01:40:23;;;;;;;0.20;0.20;;;10.00;90.60;;;;;;5051672;28;20542;-74
2022/04/30 01:42:49;;;;;;;0.20;0.20;;;10.10;90.30;;;;;;5033675;28;20083;-74
2022/04/30 01:45:17;;;;;;;0.47;0.47;;;10.10;90.00;;;;;;5051787;28;20018;-74
2022/04/30 01:47:45;;;;;;;0.20;0.20;;;10.10;90.10;;;;;;5052046;28;20025;-74
2022/04/30 01:50:12;;;;;;;0.10;0.10;;;10.00;90.50;;;;;;5037807;28;20365;-74
2022/04/30 01:52:39;;;;;;;0.20;0.20;;;10.00;90.40;;;;;;5038004;28;20484;-74
2022/04/30 01:55:05;;;;;;;0.20;0.20;;;10.20;90.60;;;;;;5037806;28;20029;-74
2022/04/30 01:57:31;;;;;;;0.60;0.60;;;10.10;90.40;;;;;;5055267;28;20496;-74
2022/04/30 01:59:59;;;;;;;0.20;0.20;;;9.90;91.10;;;;;;5037675;28;20021;-74
2022/04/30 02:02:29;;;;;;;0.20;0.20;;;10.10;91.00;;;;;;5037800;28;20045;-74
2022/04/30 02:04:57;;;;;;;0.20;0.20;;;10.10;90.50;;;;;;5055366;28;20033;-74
2022/04/30 02:07:25;;;;;;;0.20;0.20;;;10.20;91.00;;;;;;5055296;28;20025;-74
2022/04/30 02:09:52;;;;;;;0.20;0.20;;;10.20;90.90;;;;;;5055389;28;20050;-74
2022/04/30 02:12:18;;;;;;;0.20;0.20;;;10.20;90.80;;;;;;5037613;28;20025;-74
2022/04/30 02:14:54;;;;;;;0.10;0.10;;;10.40;91.00;;;;;;5055269;28;20028;-75
2022/04/30 02:17:21;;;;;;;0.20;0.20;;;10.40;90.50;;;;;;5037121;28;20115;-74
2022/04/30 02:22:38;;;;;;;0.40;0.40;;;10.30;90.80;;;;;;5055338;28;20029;-74
2022/04/30 02:25:08;;;;;;;0.20;0.20;;;10.20;90.80;;;;;;5055150;28;20112;-74
2022/04/30 02:27:36;;;;;;;0.20;0.20;;;10.30;90.70;;;;;;5037322;28;20021;-74
2022/04/30 02:30:04;;;;;;;0.20;0.20;;;10.40;91.00;;;;;;5055006;28;20039;-74
2022/04/30 02:32:39;;;;;;;0.20;0.20;;;10.30;90.40;;;;;;5055028;28;20049;-75
2022/04/30 02:35:05;;;;;;;0.40;0.40;;;10.40;90.70;;;;;;5054887;28;20025;-74
2022/04/30 02:37:31;;;;;;;0.13;0.13;;;10.30;90.60;;;;;;5036830;28;20025;-74
2022/04/30 02:39:56;;;;;;;0.20;0.20;;;10.10;90.60;;;;;;5054779;28;20029;-74
2022/04/30 02:42:22;;;;;;;0.30;0.30;;;9.80;91.00;;;;;;5054701;28;20025;-74
2022/04/30 02:44:48;;;;;;;0.20;0.20;;;9.80;91.20;;;;;;5054791;28;20013;-74
2022/04/30 02:47:14;;;;;;;0.20;0.20;;;9.60;91.70;;;;;;5054402;28;20032;-74
2022/04/30 02:49:39;;;;;;;0.20;0.20;;;9.70;92.00;;;;;;5055375;28;20488;-74
2022/04/30 02:52:05;;;;;;;0.20;0.20;;;9.80;92.40;;;;;;5055264;28;20044;-74
2022/04/30 02:54:34;;;;;;;0.60;0.60;;;9.70;92.10;;;;;;5054452;28;20151;-74
2022/04/30 02:57:01;;;;;;;0.65;0.65;;;9.50;92.20;;;;;;5054182;28;20025;-74
2022/04/30 03:02:11;;;;;;;0.20;0.20;;;8.80;94.30;;;;;;5054396;28;20052;-74
2022/04/30 03:04:37;;;;;;;0.20;0.20;;;9.00;94.70;;;;;;5054342;28;20017;-74
2022/04/30 03:07:03;;;;;;;0.17;0.17;;;9.00;93.90;;;;;;5036207;28;20097;-74
2022/04/30 03:09:30;;;;;;;1.25;0.60;;;9.30;94.50;;;;;;5036313;28;20366;-74
2022/04/30 03:11:58;;;;;;;0.52;0.52;;;9.20;94.10;;;;;;5054301;28;20033;-74
2022/04/30 03:14:24;;;;;;;0.20;0.20;;;9.20;94.70;;;;;;5054257;28;20017;-74
2022/04/30 03:22:18;;;;;;;0.93;0.93;;;9.30;95.30;;;;;;5054289;28;20029;-74
2022/04/30 03:24:44;;;;;;;0.30;0.30;;;9.20;94.60;;;;;;5036221;28;20587;-74
2022/04/30 03:27:11;;;;;;;6.32;4.57;;;9.10;95.30;;;;;;5053988;28;20021;-74
2022/04/30 03:29:37;;;;;;;0.20;0.20;;;9.00;95.80;;;;;;5054397;28;20036;-74
2022/04/30 03:32:03;;;;;;;0.30;0.30;;;9.00;95.30;;;;;;5053916;28;20021;-71
2022/04/30 03:34:32;;;;;;;0.20;0.20;;;9.00;96.00;;;;;;5053844;28;20052;-70
2022/04/30 03:36:59;;;;;;;0.20;0.20;;;8.90;96.20;;;;;;5053558;28;20396;-70
2022/04/30 03:39:24;;;;;;;0.68;0.68;;;9.00;95.80;;;;;;5035956;28;20029;-71
2022/04/30 03:41:50;;;;;;;0.47;0.47;;;9.00;96.10;;;;;;5053556;28;20017;-71
2022/04/30 03:44:16;;;;;;;0.20;0.20;;;9.00;96.70;;;;;;5053681;28;20028;-71
2022/04/30 03:46:42;;;;;;;0.17;0.17;;;9.10;96.70;;;;;;5053654;28;20079;-70
2022/04/30 03:49:07;;;;;;;0.10;0.10;;;9.20;96.40;;;;;;5053464;28;20398;-71
2022/04/30 03:51:33;;;;;;;0.10;0.10;;;9.20;96.70;;;;;;5053530;28;20025;-70
2022/04/30 03:53:59;;;;;;;0.20;0.20;;;9.20;96.70;;;;;;5053538;28;20029;-71
2022/04/30 03:56:25;;;;;;;0.25;0.25;;;9.20;96.10;;;;;;5052980;28;20021;-71
2022/04/30 03:58:51;;;;;;;0.20;0.20;;;9.10;97.10;;;;;;5053216;28;20033;-71
2022/04/30 04:01:22;;;;;;;0.20;0.20;;;9.00;97.80;;;;;;5035598;28;20037;-71
2022/04/30 04:03:50;;;;;;;0.20;0.20;;;9.10;97.90;;;;;;5053402;28;20033;-71
2022/04/30 04:06:16;;;;;;;0.20;0.20;;;9.10;97.70;;;;;;5052984;28;20024;-71
2022/04/30 04:08:43;;;;;;;0.20;0.20;;;9.20;97.60;;;;;;5053639;28;20017;-71
2022/04/30 04:11:13;;;;;;;0.38;0.38;;;9.20;97.50;;;;;;5052725;28;20408;-71
2022/04/30 04:19:09;;;;;;;0.20;0.20;;;9.30;98.50;;;;;;5066026;22;20045;-73
2022/04/30 04:21:35;;;;;;;0.15;0.15;;;9.40;98.80;;;;;;5052719;28;20503;-73
2022/04/30 04:26:44;;;;;;;0.63;0.63;;;9.70;97.80;;;;;;5052562;28;20017;-73
2022/04/30 04:29:10;;;;;;;0.20;0.20;;;9.80;97.40;;;;;;5052609;28;20032;-73
2022/04/30 04:31:37;;;;;;;0.20;0.20;;;9.80;97.20;;;;;;5053115;28;20044;-73
2022/04/30 04:34:03;;;;;;;0.30;0.30;;;9.90;96.80;;;;;;5052345;28;20029;-71
2022/04/30 04:36:29;;;;;;;0.10;0.10;;;9.80;97.00;;;;;;5052350;28;20039;-71
2022/04/30 04:38:54;;;;;;;0.20;0.20;;;9.80;97.00;;;;;;5052293;28;20029;-71
2022/04/30 04:41:20;;;;;;;0.20;0.20;;;9.70;97.50;;;;;;5052476;28;20040;-71
2022/04/30 04:43:46;;;;;;;0.15;0.15;;;9.70;97.40;;;;;;5034316;28;20036;-71
2022/04/30 04:46:13;;;;;;;0.50;0.50;;;9.50;97.70;;;;;;5052211;28;20025;-71
2022/04/30 04:48:39;;;;;;;0.10;0.10;;;9.40;98.40;;;;;;5052343;28;20075;-71
2022/04/30 04:51:05;;;;;;;0.20;0.20;;;9.50;99.40;;;;;;5052241;28;20017;-71
2022/04/30 04:53:32;;;;;;;0.20;0.20;;;9.50;99.10;;;;;;5052208;28;20013;-71
2022/04/30 04:55:58;;;;;;;0.20;0.20;;;9.60;99.10;;;;;;5033921;28;20075;-71
2022/04/30 04:58:24;;;;;;;0.10;0.10;;;9.70;98.40;;;;;;5034258;28;20025;-71
2022/04/30 05:00:50;;;;;;;0.20;0.20;;;9.70;99.00;;;;;;5034141;28;20108;-71
2022/04/30 05:03:15;;;;;;;0.20;0.20;;;9.80;99.00;;;;;;5034188;28;20017;-71
2022/04/30 05:05:41;;;;;;;0.15;0.15;;;9.90;99.20;;;;;;5051934;28;20017;-71
2022/04/30 05:08:07;;;;;;;0.20;0.20;;;9.90;98.70;;;;;;5017581;28;20086;-71
2022/04/30 05:10:34;;;;;;;0.47;0.47;;;10.00;99.70;;;;;;5052364;28;20075;-71
2022/04/30 05:13:00;;;;;;;0.20;0.20;;;9.90;99.60;;;;;;5051976;28;20028;-71
2022/04/30 05:15:25;;;;;;;0.20;0.20;;;10.00;99.80;;;;;;5051991;28;20021;-71
2022/04/30 05:17:51;;;;;;;0.30;0.30;;;10.00;99.90;;;;;;5034033;28;20051;-71
2022/04/30 05:20:17;;;;;;;0.30;0.30;;;9.90;99.90;;;;;;5051672;28;20396;-71
2022/04/30 05:22:43;;;;;;;0.20;0.20;;;10.10;99.90;;;;;;5016785;28;20017;-71
2022/04/30 05:25:08;;;;;;;0.10;0.10;;;10.20;99.90;;;;;;5051651;28;20558;-71
2022/04/30 05:27:34;;;;;;;0.63;0.63;;;10.30;99.90;;;;;;5053077;28;20024;-71
2022/04/30 05:30:00;;;;;;;0.20;0.20;;;10.40;99.90;;;;;;5061356;28;20487;-71
2022/04/30 05:32:25;;;;;;;0.10;0.10;;;10.50;99.90;;;;;;5041663;28;20040;-71
2022/04/30 05:34:51;;;;;;;0.20;0.20;;;10.60;99.90;;;;;;5051637;28;20462;-71
2022/04/30 05:37:17;;;;;;;0.10;0.10;;;10.50;99.50;;;;;;5036096;28;20114;-71
2022/04/30 05:39:43;;;;;;;0.20;0.20;;;10.70;99.00;;;;;;5033542;28;20495;-71
2022/04/30 05:42:08;;;;;;;0.20;0.20;;;10.70;97.60;;;;;;5033617;28;20107;-71
2022/04/30 05:44:34;;;;;;;0.52;0.52;;;10.80;98.10;;;;;;5057998;28;20023;-71
2022/04/30 05:47:00;;;;;;;0.30;0.30;;;10.70;97.50;;;;;;5071517;28;20031;-71
2022/04/30 05:49:26;;;;;;;0.20;0.20;;;10.50;97.60;;;;;;5038676;28;20025;-71
2022/04/30 05:51:51;;;;;;;0.40;0.40;;;10.50;98.40;;;;;;5051419;28;20028;-71
2022/04/30 05:54:17;;;;;;;1.05;0.75;;;10.30;98.60;;;;;;5051464;28;20021;-71
2022/04/30 05:56:43;;;;;;;0.35;0.35;;;10.20;99.20;;;;;;5016854;28;20067;-71
2022/04/30 05:59:08;;;;;;;0.20;0.20;;;10.10;99.90;;;;;;5033551;28;20035;-73
2022/04/30 06:01:34;;;;;;;0.60;0.60;;;10.10;99.90;;;;;;5057479;28;20017;-71
2022/04/30 06:04:00;;;;;;;1.80;0.43;;;9.90;99.90;;;;;;5042599;28;20029;-71
2022/04/30 06:06:26;;;;;;;1.15;1.05;;;9.90;99.90;;;;;;5033315;28;20100;-73
2022/04/30 06:08:52;;;;;;;0.57;0.57;;;10.10;99.90;;;;;;5051343;28;20036;-73
2022/04/30 06:11:18;;;;;;;2.35;1.15;;;10.00;99.90;;;;;;5051336;28;20021;-73
2022/04/30 06:13:44;;;;;;;0.70;0.70;;;10.00;99.90;;;;;;5051574;28;20197;-73
2022/04/30 06:16:09;;;;;;;1.75;1.65;;;10.10;99.90;;;;;;5016824;28;20036;-71
2022/04/30 06:18:35;;;;;;;0.17;0.17;;;10.10;99.90;;;;;;5051178;28;20458;-71
2022/04/30 06:21:01;;;;;;;0.20;0.20;;;10.20;99.90;;;;;;5051080;28;20021;-71
2022/04/30 06:23:27;;;;;;;0.20;0.20;;;10.30;99.90;;;;;;5051337;28;20151;-71
2022/04/30 06:25:53;;;;;;;0.20;0.20;;;10.30;99.90;;;;;;5051014;28;20049;-71
2022/04/30 06:28:19;;;;;;;0.20;0.20;;;10.50;99.90;;;;;;5033497;28;20096;-71
2022/04/30 06:30:45;;;;;;;1.85;1.48;;;10.60;99.90;;;;;;5051136;28;20052;-71
2022/04/30 06:33:11;;;;;;;0.20;0.20;;;10.70;99.90;;;;;;5033225;28;20052;-71
2022/04/30 06:35:37;;;;;;;0.10;0.10;;;10.90;99.90;;;;;;5053884;28;20035;-71
2022/04/30 06:38:04;;;;;;;0.20;0.20;;;11.10;99.90;;;;;;5054449;28;20078;-71
2022/04/30 06:40:31;;;;;;;2.33;1.95;;;11.50;99.00;;;;;;5036726;28;20037;-71
2022/04/30 06:42:57;;;;;;;0.10;0.10;;;11.60;97.70;;;;;;5054661;28;20017;-71
2022/04/30 06:45:23;;;;;;;0.15;0.15;;;11.50;98.10;;;;;;5020244;28;20024;-71
2022/04/30 06:47:49;;;;;;;0.20;0.20;;;11.70;98.30;;;;;;5054452;28;20028;-71
2022/04/30 06:50:14;;;;;;;0.40;0.40;;;11.90;97.80;;;;;;5036689;28;20029;-72
2022/04/30 06:58:09;;;;;;;6.93;3.63;;;12.30;95.60;;;;;;5036214;28;20059;-71
2022/04/30 07:03:23;;;;;;;0.22;0.22;;;11.80;96.90;;;;;;5054524;28;20063;-72
2022/04/30 07:05:51;;;;;;;0.63;0.63;;;12.10;97.20;;;;;;5054064;28;20385;-71
2022/04/30 07:08:17;;;;;;;0.93;0.93;;;12.20;96.90;;;;;;5040979;28;20016;-72
2022/04/30 07:10:43;;;;;;;0.30;0.30;;;12.30;97.10;;;;;;5054129;28;20030;-72
2022/04/30 07:13:08;;;;;;;1.17;1.08;;;12.60;96.40;;;;;;5035681;28;20485;-71
2022/04/30 07:15:34;;;;;;;0.13;0.13;;;12.90;96.20;;;;;;5053391;28;20481;-72
2022/04/30 07:18:00;;;;;;;1.80;1.67;;;13.10;95.20;;;;;;5053914;28;20411;-72
2022/04/30 07:20:26;;;;;;;0.20;0.20;;;13.10;94.90;;;;;;5055875;28;20039;-72
2022/04/30 07:22:52;;;;;;;1.10;1.00;;;13.20;94.90;;;;;;5046859;28;20032;-71
2022/04/30 07:25:18;;;;;;;2.85;2.10;;;13.40;94.40;;;;;;5067476;28;20023;-72
2022/04/30 07:27:44;;;;;;;2.70;1.30;;;13.30;94.50;;;;;;5053138;28;20013;-71
2022/04/30 07:30:10;;;;;;;0.77;0.77;;;13.20;94.80;;;;;;5053379;28;20035;-71
2022/04/30 07:32:40;;;;;;;0.45;0.45;;;13.40;94.20;;;;;;5061763;28;20529;-72
2022/04/30 07:35:06;;;;;;;0.43;0.32;;;13.60;93.90;;;;;;5040314;28;20112;-72
2022/04/30 07:37:32;;;;;;;1.95;1.33;;;13.80;93.40;;;;;;5035255;28;20032;-71
2022/04/30 07:39:57;;;;;;;0.25;0.25;;;13.90;92.70;;;;;;5036924;28;20032;-72
2022/04/30 07:42:23;;;;;;;0.68;0.55;;;13.80;92.40;;;;;;5053296;28;20476;-71
2022/04/30 07:44:49;;;;;;;0.10;0.10;;;14.00;92.50;;;;;;5035572;28;20021;-73
2022/04/30 07:47:15;;;;;;;2.83;1.65;;;13.90;92.10;;;;;;5051292;28;20023;-72
2022/04/30 07:49:41;;;;;;;2.85;2.08;;;13.70;91.90;;;;;;5053255;28;20037;-72
2022/04/30 07:52:07;;;;;;;2.80;2.05;;;13.70;92.70;;;;;;5056862;28;20112;-72
2022/04/30 07:54:33;;;;;;;0.20;0.20;;;13.20;92.60;;;;;;5057346;28;20155;-72
2022/04/30 07:57:02;;;;;;;0.82;0.82;;;13.10;93.40;;;;;;5072001;28;20119;-72
2022/04/30 07:59:28;;;;;;;0.40;0.40;;;13.20;93.20;;;;;;5058080;28;20464;-72
2022/04/30 08:01:54;;;;;;;4.03;1.45;;;13.30;93.00;;;;;;5057552;28;20094;-72
2022/04/30 08:04:20;;;;;;;1.02;0.75;;;13.60;92.40;;;;;;5053040;28;20092;-72
2022/04/30 08:06:45;;;;;;;0.85;0.65;;;13.80;92.20;;;;;;5052617;28;20078;-71
2022/04/30 08:09:11;;;;;;;2.97;2.22;;;13.80;92.00;;;;;;5034556;28;20468;-72
2022/04/30 08:11:37;;;;;;;0.65;0.65;;;13.70;91.80;;;;;;5053009;28;20029;-73
2022/04/30 08:14:03;;;;;;;0.75;0.75;;;13.70;91.80;;;;;;5035012;28;20387;-72
2022/04/30 08:16:29;;;;;;;3.22;3.03;;;13.90;91.70;;;;;;5034745;28;20400;-72
2022/04/30 08:18:56;;;;;;;1.33;1.23;;;14.20;91.00;;;;;;5058364;28;20441;-71
2022/04/30 08:21:22;;;;;;;4.30;1.55;;;14.30;90.50;;;;;;5061655;28;20013;-73
2022/04/30 08:23:48;;;;;;;3.63;2.72;;;14.20;90.20;;;;;;5034581;28;20075;-72
2022/04/30 08:26:14;;;;;;;0.20;0.20;;;14.40;90.20;;;;;;5042026;28;20052;-71
2022/04/30 08:28:40;;;;;;;0.40;0.40;;;14.30;90.40;;;;;;5052781;28;20021;-72
2022/04/30 08:31:06;;;;;;;0.10;0.10;;;14.40;89.90;;;;;;5052273;28;20027;-72
2022/04/30 08:33:32;;;;;;;1.13;1.08;;;14.60;87.40;;;;;;5052392;28;20033;-73
2022/04/30 08:35:58;;;;;;;0.55;0.55;;;15.00;87.00;;;;;;5052192;28;20021;-73
2022/04/30 08:38:23;;;;;;;0.47;0.47;;;15.30;87.30;;;;;;5034395;28;20463;-72
2022/04/30 08:40:49;;;;;;;0.15;0.15;;;15.60;86.00;;;;;;5052239;28;20102;-72
2022/04/30 08:43:16;;;;;;;4.32;2.47;;;15.80;84.30;;;;;;5052359;28;20033;-72
2022/04/30 08:45:45;;;;;;;0.10;0.10;;;15.90;81.60;;;;;;5051159;28;20023;-72
2022/04/30 08:48:13;;;;;;;0.20;0.20;;;15.90;81.40;;;;;;5032240;28;20421;-72
2022/04/30 08:50:41;;;;;;;5.13;0.95;;;15.90;80.90;;;;;;5017225;28;20025;-72
2022/04/30 08:53:07;;;;;;;3.88;2.55;;;16.00;80.60;;;;;;5034157;28;20111;-72
2022/04/30 08:55:33;;;;;;;1.10;0.63;;;15.80;80.90;;;;;;5051820;28;20020;-73
2022/04/30 08:57:59;;;;;;;2.30;1.92;;;15.40;82.80;;;;;;5034174;28;20024;-72
2022/04/30 09:00:26;;;;;;;1.23;1.05;;;15.10;84.40;;;;;;5038356;28;20017;-73
2022/04/30 09:02:58;;;;;;;1.05;1.02;;;15.00;84.90;;;;;;5050545;28;20024;-73
2022/04/30 09:05:32;;;;;;;0.68;0.60;;;15.20;84.80;;;;;;5033835;28;20021;-73
2022/04/30 09:07:59;;;;;;;0.10;0.10;;;15.30;84.50;;;;;;5051718;28;20104;-73
2022/04/30 09:10:30;;;;;;;0.17;0.17;;;15.50;84.50;;;;;;5033875;28;20052;-73
2022/04/30 09:13:14;;;;;;;2.07;1.90;;;15.60;83.50;;;;;;5051852;28;20029;-73
2022/04/30 09:15:44;;;;;;;3.55;2.47;;;15.40;83.70;;;;;;5033564;28;20032;-73
2022/04/30 09:18:11;;;;;;;1.58;1.35;;;15.50;83.20;;;;;;5017203;28;20029;-73
2022/04/30 09:20:54;;;;;;;1.27;1.17;;;15.70;82.90;;;;;;5033878;28;20017;-73
2022/04/30 09:23:31;;;;;;;6.22;1.55;;;15.60;83.00;;;;;;5033821;28;20031;-74
2022/04/30 09:25:58;;;;;;;0.30;0.30;;;15.60;83.20;;;;;;5051109;28;20351;-73
2022/04/30 09:28:38;;;;;;;0.05;0.05;;;15.40;82.20;;;;;;5033846;28;20024;-73
2022/04/30 09:31:08;;;;;;;0.70;0.45;;;15.30;82.40;;;;;;5033789;28;20029;-73
2022/04/30 09:33:38;;;;;;;0.25;0.25;;;15.30;82.40;;;;;;5051669;28;20394;-73
2022/04/30 09:38:51;;;;;;;5.25;1.48;;;15.30;81.70;;;;;;5051555;28;20024;-73
2022/04/30 09:41:24;;;;;;;4.05;1.60;;;15.40;81.80;;;;;;5033458;28;20500;-73
2022/04/30 09:44:01;;;;;;;0.20;0.20;;;15.50;81.10;;;;;;5051742;28;20096;-73
2022/04/30 09:46:28;;;;;;;0.10;0.10;;;15.50;80.40;;;;;;5050981;28;20040;-73
2022/04/30 09:54:26;;;;;;;0.55;0.55;;;15.80;76.60;;;;;;5051487;28;20029;-73
2022/04/30 09:56:53;;;;;;;5.25;2.63;;;15.70;76.30;;;;;;5051082;28;20062;-73
2022/04/30 09:59:22;;;;;;;0.20;0.20;;;15.50;75.90;;;;;;5021894;28;20032;-73
2022/04/30 10:01:49;;;;;;;0.30;0.30;;;15.40;77.30;;;;;;5071616;28;20091;-73
2022/04/30 10:04:17;;;;;;;2.47;1.25;;;15.30;76.90;;;;;;5025143;28;20056;-73
2022/04/30 10:06:51;;;;;;;0.35;0.35;;;15.10;76.70;;;;;;5051180;28;20017;-73
2022/04/30 10:09:22;;;;;;;3.97;1.73;;;15.10;77.60;;;;;;5044634;28;20124;-73
2022/04/30 10:11:54;;;;;;;2.65;1.85;;;15.10;75.90;;;;;;5055444;28;20021;-73
2022/04/30 10:14:31;;;;;;;2.30;2.10;;;15.00;76.80;;;;;;5055153;28;20033;-71
2022/04/30 10:17:16;;;;;;;2.17;1.30;;;15.00;76.60;;;;;;5054979;28;20052;-72
2022/04/30 10:19:45;;;;;;;1.60;1.52;;;14.80;77.60;;;;;;5054904;28;20082;-72
2022/04/30 10:22:14;;;;;;;0.45;0.45;;;14.90;78.60;;;;;;5055013;28;20048;-72
2022/04/30 10:24:45;;;;;;;0.85;0.85;;;15.00;78.80;;;;;;5054974;28;20021;-72
2022/04/30 10:27:11;;;;;;;2.13;1.98;;;15.20;79.30;;;;;;5054593;28;20025;-72
2022/04/30 10:29:37;;;;;;;3.75;2.90;;;15.10;80.00;;;;;;5054835;28;20029;-72
2022/04/30 10:32:04;;;;;;;1.95;1.42;;;15.00;79.90;;;;;;5020489;28;20029;-72
2022/04/30 10:34:31;;;;;;;0.88;0.80;;;14.90;82.50;;;;;;5054770;28;20059;-75
2022/04/30 10:37:01;;;;;;;1.10;1.08;;;14.80;85.30;;;;;;5066030;23;20045;-74
2022/04/30 10:39:26;;;;;;;1.00;0.63;;;14.80;86.20;;;;;;5044852;28;20093;-75
2022/04/30 10:41:53;;;;;;;0.57;0.57;;;14.80;86.70;;;;;;5047505;28;20067;-75
2022/04/30 10:44:32;;;;;;;3.42;2.55;;;14.60;87.40;;;;;;5054572;28;20388;-74
2022/04/30 10:47:13;;;;;;;0.30;0.30;;;14.50;86.20;;;;;;5047912;28;20100;-75
2022/04/30 10:49:39;;;;;;;0.75;0.75;;;14.40;86.70;;;;;;5037610;28;20052;-75
2022/04/30 10:52:05;;;;;;;2.75;1.52;;;14.40;87.30;;;;;;5034167;28;20044;-75
2022/04/30 10:54:34;;;;;;;5.07;2.55;;;14.30;88.10;;;;;;5034634;28;20033;-74
2022/04/30 10:57:04;;;;;;;0.13;0.13;;;14.20;87.60;;;;;;5046978;28;20036;-74
2022/04/30 10:59:30;;;;;;;0.40;0.40;;;14.20;88.00;;;;;;5036638;28;20484;-74
2022/04/30 11:01:56;;;;;;;0.43;0.43;;;14.00;88.80;;;;;;5054283;28;20480;-74
2022/04/30 11:04:23;;;;;;;4.93;2.53;;;14.00;89.50;;;;;;5032876;28;20023;-74
2022/04/30 11:06:53;;;;;;;0.20;0.20;;;13.90;89.80;;;;;;5053524;28;20017;-75
2022/04/30 11:09:20;;;;;;;0.10;0.10;;;14.00;90.10;;;;;;5036321;28;20029;-75
2022/04/30 11:11:48;;;;;;;0.43;0.43;;;14.10;90.00;;;;;;5054110;28;20033;-75
2022/04/30 11:14:16;;;;;;;7.05;4.43;;;14.00;90.30;;;;;;5025232;28;20555;-75
2022/04/30 11:16:47;;;;;;;0.77;0.77;;;13.70;90.60;;;;;;5032495;28;20025;-73
2022/04/30 11:19:18;;;;;;;1.45;1.27;;;13.90;90.90;;;;;;5031426;28;20105;-74
2022/04/30 11:21:49;;;;;;;0.63;0.63;;;14.00;90.50;;;;;;5000159;28;20104;-74
2022/04/30 11:24:26;;;;;;;6.97;4.22;;;13.90;90.30;;;;;;5044588;28;20112;-74
2022/04/30 11:27:05;;;;;;;7.05;3.78;;;13.60;91.00;;;;;;5026079;28;20024;-74
2022/04/30 11:29:32;;;;;;;0.20;0.20;;;13.60;91.60;;;;;;5053381;28;20029;-75
2022/04/30 11:31:59;;;;;;;3.03;2.17;;;13.80;92.20;;;;;;5053160;28;20032;-74
2022/04/30 11:34:25;;;;;;;9.63;1.02;;;13.90;91.80;;;;;;5053727;28;20108;-74
2022/04/30 11:36:58;;;;;;;4.53;1.77;;;13.80;92.40;;;;;;5053233;28;20040;-74
2022/04/30 11:39:25;;;;;;;6.30;3.78;;;13.50;93.00;;;;;;5044191;28;20049;-74
2022/04/30 11:41:55;;;;;;;0.73;0.47;;;13.30;93.40;;;;;;5045296;28;20373;-74
2022/04/30 11:44:26;;;;;;;1.50;1.15;;;13.30;93.90;;;;;;5033796;28;20091;-74
2022/04/30 11:46:53;;;;;;;11.55;6.20;;;13.30;94.00;;;;;;5015573;28;20108;-74
2022/04/30 11:49:20;;;;;;;1.83;0.90;;;13.20;94.20;;;;;;5033482;28;20112;-74
2022/04/30 11:51:48;;;;;;;0.20;0.20;;;13.40;95.00;;;;;;5038589;28;20029;-74
2022/04/30 11:54:17;;;;;;;0.93;0.93;;;13.50;94.20;;;;;;5015588;28;20033;-74
2022/04/30 11:56:44;;;;;;;0.20;0.20;;;13.60;94.10;;;;;;5015431;28;20026;-74
2022/04/30 11:59:11;;;;;;;0.10;0.10;;;13.50;95.10;;;;;;5033337;28;20029;-74
2022/04/30 12:01:42;;;;;;;11.20;8.95;;;13.60;96.20;;;;;;4999199;28;20136;-74
2022/04/30 12:04:11;;;;;;;5.43;4.05;;;13.70;96.50;;;;;;5033343;28;20013;-73
2022/04/30 12:06:38;;;;;;;0.55;0.55;;;13.20;96.00;;;;;;5045206;28;20029;-74
2022/04/30 12:09:14;;;;;;;0.47;0.47;;;13.30;97.20;;;;;;5053328;28;20388;-75
2022/04/30 12:11:43;;;;;;;3.25;2.15;;;13.30;97.30;;;;;;5019025;28;20092;-71
2022/04/30 12:14:11;;;;;;;0.13;0.13;;;13.50;96.10;;;;;;5035410;28;20531;-71
2022/04/30 12:16:39;;;;;;;0.30;0.30;;;13.80;96.50;;;;;;5052752;28;20399;-71
2022/04/30 12:24:45;;;;;;;2.30;1.38;;;12.90;98.80;;;;;;5041752;28;20017;-71
2022/04/30 12:27:24;;;;;;;5.15;2.42;;;13.00;99.70;;;;;;5032855;28;20045;-71
2022/04/30 12:30:04;;;;;;;0.10;0.10;;;12.90;99.90;;;;;;5032763;28;20112;-71
2022/04/30 12:32:32;;;;;;;5.00;3.72;;;12.90;99.90;;;;;;5015452;28;20087;-74
2022/04/30 12:34:59;;;;;;;3.90;1.48;;;12.90;99.90;;;;;;5048147;28;20022;-72
2022/04/30 12:37:32;;;;;;;7.43;3.33;;;13.00;99.90;;;;;;5031680;28;20103;-71
2022/04/30 12:39:59;;;;;;;1.08;1.00;;;12.90;99.90;;;;;;5023214;28;20453;-71
2022/04/30 12:42:24;;;;;;;1.35;1.17;;;12.70;99.90;;;;;;5047864;28;20096;-71
2022/04/30 12:44:50;;;;;;;0.60;0.60;;;12.80;99.90;;;;;;5034343;28;20107;-71
2022/04/30 12:47:16;;;;;;;1.13;1.05;;;12.70;99.90;;;;;;5039622;28;20025;-71
2022/04/30 12:49:42;;;;;;;2.60;2.05;;;12.70;99.90;;;;;;5032318;28;20105;-71
2022/04/30 12:52:07;;;;;;;3.00;1.73;;;12.60;99.90;;;;;;5014308;28;20032;-71
2022/04/30 12:54:33;;;;;;;2.08;1.48;;;12.60;99.90;;;;;;5031595;28;20032;-71
2022/04/30 12:56:59;;;;;;;1.27;1.23;;;12.60;99.90;;;;;;5019261;28;20098;-71
2022/04/30 12:59:25;;;;;;;0.10;0.10;;;12.50;99.90;;;;;;5052241;28;20120;-71
2022/04/30 13:01:52;;;;;;;4.82;2.05;;;12.40;99.90;;;;;;5051845;28;20533;-71
2022/04/30 13:04:18;;;;;;;0.82;0.40;;;12.40;99.90;;;;;;5052048;28;20054;-71
2022/04/30 13:06:44;;;;;;;0.10;0.10;;;12.30;99.90;;;;;;5051718;28;20028;-71
2022/04/30 13:14:38;;;;;;;0.30;0.30;;;12.90;99.90;;;;;;5052326;28;20025;-71
2022/04/30 13:17:04;;;;;;;2.58;0.32;;;12.80;99.90;;;;;;5017289;28;20074;-71
2022/04/30 13:19:31;;;;;;;1.65;1.35;;;12.90;99.90;;;;;;5033965;28;20504;-72
2022/04/30 13:21:59;;;;;;;0.63;0.63;;;12.80;99.90;;;;;;5033942;28;20087;-72
2022/04/30 13:24:25;;;;;;;2.83;2.38;;;12.70;99.90;;;;;;5042807;28;20041;-71
2022/04/30 13:26:50;;;;;;;0.90;0.65;;;12.80;99.90;;;;;;5031559;28;20072;-72
2022/04/30 13:29:16;;;;;;;0.10;0.10;;;12.60;99.90;;;;;;5041889;28;20346;-71
2022/04/30 13:31:42;;;;;;;0.90;0.90;;;12.70;99.90;;;;;;5051527;28;20110;-71
2022/04/30 13:34:08;;;;;;;0.10;0.10;;;12.60;99.90;;;;;;5017524;28;20639;-72
2022/04/30 13:36:35;;;;;;;0.63;0.63;;;12.60;99.90;;;;;;5051462;28;20025;-72
2022/04/30 13:39:01;;;;;;;1.67;1.27;;;12.70;99.90;;;;;;5028110;28;20378;-72
2022/04/30 13:41:28;;;;;;;2.83;1.50;;;12.80;99.90;;;;;;5031862;28;20021;-72